DABC

Mohamed Boudiaf International Airport

Constantine, Algeria
METAR DABC 231100Z 31003KT 250V360 9999 FEW026 13/08 Q1027
Observed Flight Rules
Jan-23 @ 11:00 UTC (48 minutes ago) Visual Flight Rules
Wind Visibility Clouds
310° at 3 knots 10,000+ meters
  • Few at 2,600' AGL
Temperatures Readings
Current 13°C / 55°F
Dewpoint 8°C / 46°F
Humidity 72%
Altimeter 30.32" Hg
Pressure 1027 hPa
Elevation 694
METAR DABC 231100Z 31003KT 250V360 9999 FEW026 13/08 Q1027
Observed Flight Rules
Jan-23 @ 11:00 UTC
(48 minutes ago)
VFR
Wind Visibility
310° at 3 knots 10,000+ meters
Clouds
  • Few at 2,600' AGL
Temperature Dewpoint
13°C / 55°F 8°C / 46°F
Humidity Altimeter Pressure
72% 30.32" Hg 1027 hPa